Terminal Aerodrome Forecast
Issued by NWS Central Illinois

Home | Current Version | Previous Version | Text Only | Print | Product List | Glossary On
Versions: 1 2 3 4 5 6 7 8 9 10 11 12 13 14 15 16 17 18 19
000
FTUS43 KILX 161700
TAFSPI
TAF
KSPI 161721Z 1618/1718 VRB05KT P6SM BKN030
     FM162200 VRB05KT P6SM SCT040
      TEMPO 1709/1712 4SM BR=

USA.gov is the U.S. government's official web portal to all federal, state and local government web resources and services.